createdAt,value
2023-03-20T00:01:59.135Z,100.00
2023-03-20T00:04:26.257Z,100.00
2023-03-20T00:06:52.766Z,100.00
2023-03-20T00:09:19.279Z,100.00
2023-03-20T00:11:51.383Z,100.00
2023-03-20T00:14:22.330Z,100.00
2023-03-20T00:16:50.057Z,100.00
2023-03-20T00:19:29.462Z,100.00
2023-03-20T00:21:56.058Z,100.00
2023-03-20T00:24:23.253Z,100.00
2023-03-20T00:26:51.099Z,100.00
2023-03-20T00:29:31.270Z,100.00
2023-03-20T00:31:58.953Z,100.00
2023-03-20T00:34:29.048Z,100.00
2023-03-20T00:36:56.490Z,100.00
2023-03-20T00:39:23.777Z,100.00
2023-03-20T00:41:54.408Z,100.00
2023-03-20T00:44:31.856Z,100.00
2023-03-20T00:47:01.349Z,100.00
2023-03-20T00:49:38.333Z,100.00
2023-03-20T00:52:05.818Z,100.00
2023-03-20T00:54:32.432Z,100.00
2023-03-20T00:57:24.494Z,100.00
2023-03-20T01:00:05.509Z,100.00
2023-03-20T01:02:32.998Z,100.00
2023-03-20T01:04:59.512Z,100.00
2023-03-20T01:07:26.594Z,100.00
2023-03-20T01:09:53.133Z,100.00
2023-03-20T01:12:20.106Z,100.00
2023-03-20T01:14:53.345Z,100.00
2023-03-20T01:17:22.665Z,100.00
2023-03-20T01:19:49.436Z,100.00
2023-03-20T01:22:18.966Z,100.00
2023-03-20T01:24:47.976Z,100.00
2023-03-20T01:27:18.061Z,100.00
2023-03-20T01:29:45.703Z,100.00
2023-03-20T01:32:18.247Z,100.00
2023-03-20T01:34:44.859Z,100.00
2023-03-20T01:37:18.261Z,100.00
2023-03-20T01:39:44.826Z,100.00
2023-03-20T01:42:15.557Z,100.00
2023-03-20T01:44:42.229Z,100.00
2023-03-20T01:47:21.346Z,100.00
2023-03-20T01:50:26.353Z,100.00
2023-03-20T01:53:03.709Z,100.00
2023-03-20T01:55:30.972Z,100.00
2023-03-20T01:58:05.198Z,100.00
2023-03-20T02:00:32.321Z,100.00
2023-03-20T02:02:59.137Z,100.00
2023-03-20T02:05:26.432Z,100.00
2023-03-20T02:08:11.704Z,100.00
2023-03-20T02:10:39.682Z,100.00
2023-03-20T02:13:08.155Z,100.00
2023-03-20T02:15:36.286Z,100.00
2023-03-20T02:18:03.087Z,100.00
2023-03-20T02:21:00.722Z,100.00
2023-03-20T02:23:51.681Z,100.00
2023-03-20T02:26:46.230Z,100.00
2023-03-20T02:29:53.667Z,100.00
2023-03-20T02:32:45.042Z,100.00
2023-03-20T02:35:11.450Z,100.00
2023-03-20T02:38:04.113Z,100.00
2023-03-20T02:40:30.544Z,100.00
2023-03-20T02:43:15.592Z,100.00
2023-03-20T02:46:08.158Z,100.00
2023-03-20T02:49:10.317Z,100.00
2023-03-20T02:51:59.310Z,100.00
2023-03-20T02:54:33.595Z,100.00
2023-03-20T02:57:12.435Z,100.00
2023-03-20T02:59:53.403Z,100.00
2023-03-20T03:02:47.341Z,100.00
2023-03-20T03:05:20.569Z,100.00
2023-03-20T03:07:50.314Z,100.00
2023-03-20T03:10:58.830Z,100.00
2023-03-20T03:13:29.414Z,100.00
2023-03-20T03:16:03.195Z,100.00
2023-03-20T03:18:32.192Z,100.00
2023-03-20T03:21:02.384Z,100.00
2023-03-20T03:23:32.842Z,100.00
2023-03-20T03:26:02.371Z,100.00
2023-03-20T03:28:37.335Z,100.00
2023-03-20T03:31:07.168Z,100.00
2023-03-20T03:33:38.125Z,100.00
2023-03-20T03:37:02.306Z,100.00
2023-03-20T03:39:51.809Z,100.00
2023-03-20T03:42:31.490Z,100.00
2023-03-20T03:45:08.854Z,100.00
2023-03-20T03:47:41.277Z,100.00
2023-03-20T03:50:15.777Z,100.00
2023-03-20T03:52:44.958Z,100.00
2023-03-20T03:55:21.473Z,100.00
2023-03-20T03:58:23.440Z,100.00
2023-03-20T04:00:52.415Z,100.00
2023-03-20T04:03:26.471Z,100.00
2023-03-20T04:05:59.084Z,100.00
2023-03-20T04:08:27.483Z,100.00
2023-03-20T04:10:53.997Z,100.00
2023-03-20T04:13:20.615Z,100.00
2023-03-20T04:15:47.296Z,100.00
2023-03-20T04:18:18.723Z,100.00
2023-03-20T04:20:46.718Z,100.00
2023-03-20T04:23:14.207Z,100.00
2023-03-20T04:25:41.226Z,100.00
2023-03-20T04:28:07.698Z,100.00
2023-03-20T04:30:34.323Z,100.00
2023-03-20T04:33:00.988Z,100.00
2023-03-20T04:35:30.952Z,100.00
2023-03-20T04:38:01.887Z,100.00
2023-03-20T04:40:31.663Z,100.00
2023-03-20T04:43:00.983Z,100.00
2023-03-20T04:45:30.441Z,100.00
2023-03-20T04:47:59.101Z,100.00
2023-03-20T04:50:25.581Z,100.00
2023-03-20T04:52:52.066Z,100.00
2023-03-20T04:55:18.617Z,100.00
2023-03-20T04:57:45.169Z,100.00
2023-03-20T05:00:12.241Z,100.00
2023-03-20T05:02:38.754Z,100.00
2023-03-20T05:05:05.757Z,100.00
2023-03-20T05:07:32.914Z,100.00
2023-03-20T05:10:00.249Z,100.00
2023-03-20T05:12:30.444Z,100.00
2023-03-20T05:14:57.145Z,100.00
2023-03-20T05:17:24.863Z,100.00
2023-03-20T05:19:51.362Z,100.00
2023-03-20T05:22:18.601Z,100.00
2023-03-20T05:24:45.222Z,100.00
2023-03-20T05:27:11.770Z,99.92
2023-03-20T05:29:38.311Z,99.37
2023-03-20T05:32:05.391Z,100.00
2023-03-20T05:34:31.889Z,100.00
2023-03-20T05:36:58.395Z,99.76
2023-03-20T05:39:24.842Z,100.00
2023-03-20T05:41:51.265Z,100.00
2023-03-20T05:44:17.772Z,100.00
2023-03-20T05:46:44.224Z,100.00
2023-03-20T05:49:11.048Z,100.00
2023-03-20T05:51:38.187Z,100.00
2023-03-20T05:54:05.347Z,100.00
2023-03-20T05:56:34.713Z,100.00
2023-03-20T05:59:04.234Z,100.00
2023-03-20T06:01:31.045Z,100.00
2023-03-20T06:03:57.595Z,100.00
2023-03-20T06:06:24.077Z,100.00
2023-03-20T06:08:50.519Z,100.00
2023-03-20T06:11:17.563Z,100.00
2023-03-20T06:13:44.040Z,100.00
2023-03-20T06:16:11.025Z,100.00
2023-03-20T06:18:39.181Z,100.00
2023-03-20T06:21:06.083Z,100.00
2023-03-20T06:23:32.658Z,100.00
2023-03-20T06:25:59.175Z,100.00
2023-03-20T06:28:25.721Z,100.00
2023-03-20T06:30:53.517Z,100.00
2023-03-20T06:33:20.572Z,100.00
2023-03-20T06:35:47.181Z,100.00
2023-03-20T06:38:14.152Z,100.00
2023-03-20T06:40:41.660Z,100.00
2023-03-20T06:43:08.154Z,100.00
2023-03-20T06:45:35.038Z,100.00
2023-03-20T06:48:01.865Z,100.00
2023-03-20T06:50:28.359Z,100.00
2023-03-20T06:52:54.929Z,100.00
2023-03-20T06:55:21.409Z,100.00
2023-03-20T06:57:47.912Z,100.00
2023-03-20T07:00:14.941Z,100.00
2023-03-20T07:02:41.455Z,100.00
2023-03-20T07:05:08.419Z,100.00
2023-03-20T07:07:34.896Z,100.00
2023-03-20T07:10:05.015Z,100.00
2023-03-20T07:12:34.429Z,100.00
2023-03-20T07:15:02.887Z,100.00
2023-03-20T07:17:33.269Z,100.00
2023-03-20T07:20:02.364Z,100.00
2023-03-20T07:22:32.631Z,100.00
2023-03-20T07:24:59.123Z,100.00
2023-03-20T07:27:26.526Z,100.00
2023-03-20T07:29:53.123Z,100.00
2023-03-20T07:32:20.700Z,99.32
2023-03-20T07:34:47.797Z,99.45
2023-03-20T07:37:14.446Z,97.65
2023-03-20T07:39:41.094Z,97.50
2023-03-20T07:42:07.567Z,96.34
2023-03-20T07:44:34.273Z,94.66
2023-03-20T07:47:06.013Z,92.61
2023-03-20T07:49:33.080Z,90.37
2023-03-20T07:52:00.508Z,89.16
2023-03-20T07:54:27.846Z,88.74
2023-03-20T07:56:54.295Z,89.07
2023-03-20T07:59:20.841Z,89.30
2023-03-20T08:01:47.351Z,88.98
2023-03-20T08:04:13.910Z,89.48
2023-03-20T08:06:40.526Z,88.95
2023-03-20T08:09:07.515Z,86.98
2023-03-20T08:11:34.801Z,84.53
2023-03-20T08:14:02.446Z,82.47
2023-03-20T08:16:29.001Z,81.54
2023-03-20T08:19:02.293Z,79.03
2023-03-20T08:21:30.511Z,79.54
2023-03-20T08:24:01.856Z,79.50
2023-03-20T08:26:28.462Z,77.41
2023-03-20T08:28:55.216Z,74.11
2023-03-20T08:31:21.750Z,74.41
2023-03-20T08:33:48.327Z,74.93
2023-03-20T08:36:15.991Z,71.92
2023-03-20T08:38:43.431Z,73.27
2023-03-20T08:41:10.257Z,71.86
2023-03-20T08:43:36.784Z,69.47
2023-03-20T08:46:03.770Z,72.22
2023-03-20T08:48:31.513Z,71.46
2023-03-20T08:50:57.977Z,69.90
2023-03-20T08:53:24.646Z,69.15
2023-03-20T08:55:52.108Z,69.46
2023-03-20T08:58:22.425Z,66.48
2023-03-20T09:00:49.248Z,63.68
2023-03-20T09:03:18.302Z,62.99
2023-03-20T09:05:46.521Z,64.84
2023-03-20T09:08:13.766Z,64.34
2023-03-20T09:10:41.233Z,63.21
2023-03-20T09:13:25.794Z,61.65
2023-03-20T09:15:53.907Z,59.51
2023-03-20T09:18:21.329Z,60.22
2023-03-20T09:20:48.727Z,59.38
2023-03-20T09:23:15.624Z,61.35
2023-03-20T09:25:42.100Z,60.13
2023-03-20T09:28:08.538Z,62.89
2023-03-20T09:30:35.262Z,64.59
2023-03-20T09:33:02.101Z,59.98
2023-03-20T09:35:28.697Z,61.26
2023-03-20T09:37:55.152Z,60.78
2023-03-20T09:40:29.077Z,60.86
2023-03-20T09:43:21.001Z,60.63
2023-03-20T09:46:29.253Z,57.93
2023-03-20T09:49:12.412Z,56.19
2023-03-20T09:51:57.730Z,54.20
2023-03-20T09:54:43.554Z,53.60
2023-03-20T09:57:23.400Z,51.42
2023-03-20T09:59:55.629Z,49.96
2023-03-20T10:02:48.890Z,49.09
2023-03-20T10:05:26.752Z,48.19
2023-03-20T10:08:04.816Z,46.95
2023-03-20T10:10:43.116Z,46.65
2023-03-20T10:13:34.103Z,43.88
2023-03-20T10:16:27.847Z,43.50
2023-03-20T10:19:17.893Z,40.39
2023-03-20T10:21:49.594Z,39.99
2023-03-20T10:24:26.940Z,40.23
2023-03-20T10:26:57.137Z,41.87
2023-03-20T10:29:25.522Z,39.57
2023-03-20T10:31:52.058Z,41.07
2023-03-20T10:34:37.037Z,38.20
2023-03-20T10:37:27.892Z,37.16
2023-03-20T10:39:54.803Z,38.64
2023-03-20T10:42:27.725Z,38.97
2023-03-20T10:45:06.545Z,39.18
2023-03-20T10:47:42.601Z,40.87
2023-03-20T10:50:17.074Z,41.06
2023-03-20T10:52:49.525Z,41.55
2023-03-20T10:55:20.757Z,42.72
2023-03-20T10:58:06.884Z,42.18
2023-03-20T11:00:40.435Z,43.58
2023-03-20T11:03:13.553Z,44.98
2023-03-20T11:05:44.783Z,44.57
2023-03-20T11:08:15.478Z,42.33
2023-03-20T11:10:43.269Z,42.27
2023-03-20T11:13:25.626Z,39.32
2023-03-20T11:15:54.145Z,40.86
2023-03-20T11:18:25.223Z,43.71
2023-03-20T11:21:08.509Z,42.81
2023-03-20T11:23:35.660Z,42.50
2023-03-20T11:26:06.760Z,42.70
2023-03-20T11:28:39.793Z,41.12
2023-03-20T11:31:20.384Z,40.40
2023-03-20T11:34:09.268Z,43.11
2023-03-20T11:36:37.623Z,40.62
2023-03-20T11:39:14.282Z,42.28
2023-03-20T11:41:50.995Z,42.49
2023-03-20T11:44:34.200Z,42.84
2023-03-20T11:47:14.680Z,45.20
2023-03-20T11:49:58.894Z,45.77
2023-03-20T11:52:31.608Z,45.93
2023-03-20T11:55:01.718Z,45.11
2023-03-20T11:57:33.990Z,45.30
2023-03-20T12:00:16.684Z,44.03
2023-03-20T12:02:44.766Z,43.87
2023-03-20T12:05:32.645Z,45.19
2023-03-20T12:08:07.099Z,44.97
2023-03-20T12:10:39.562Z,44.74
2023-03-20T12:13:16.951Z,42.36
2023-03-20T12:15:50.934Z,41.33
2023-03-20T12:18:38.860Z,41.40
2023-03-20T12:21:24.076Z,41.42
2023-03-20T12:24:02.441Z,40.34
2023-03-20T12:26:37.565Z,38.57
2023-03-20T12:29:32.913Z,37.26
2023-03-20T12:32:15.048Z,39.01
2023-03-20T12:34:47.083Z,36.47
2023-03-20T12:37:18.291Z,36.80
2023-03-20T12:39:57.142Z,34.56
2023-03-20T12:42:38.473Z,34.38
2023-03-20T12:45:09.461Z,32.73
2023-03-20T12:47:47.978Z,34.31
2023-03-20T12:50:36.563Z,34.11
2023-03-20T12:53:27.238Z,33.87
2023-03-20T12:56:15.568Z,33.29
2023-03-20T12:58:58.670Z,34.20
2023-03-20T13:01:34.624Z,31.97
2023-03-20T13:04:36.812Z,34.02
2023-03-20T13:07:19.491Z,35.75
2023-03-20T13:09:57.108Z,35.56
2023-03-20T13:12:23.988Z,33.02
2023-03-20T13:15:10.608Z,32.33
2023-03-20T13:17:43.754Z,33.64
2023-03-20T13:20:19.362Z,34.23
2023-03-20T13:23:15.381Z,34.08
2023-03-20T13:26:23.491Z,33.89
2023-03-20T13:29:13.813Z,32.22
2023-03-20T13:31:45.846Z,34.43
2023-03-20T13:34:27.154Z,32.10
2023-03-20T13:37:23.112Z,31.31
2023-03-20T13:39:58.953Z,29.88
2023-03-20T13:42:31.107Z,31.13
2023-03-20T13:45:06.099Z,29.17
2023-03-20T13:47:38.190Z,30.04
2023-03-20T13:50:32.334Z,30.56
2023-03-20T13:53:22.983Z,30.23
2023-03-20T13:55:55.981Z,30.75
2023-03-20T13:58:38.720Z,31.14
2023-03-20T14:01:22.377Z,31.77
2023-03-20T14:03:49.762Z,32.55
2023-03-20T14:06:44.013Z,32.76
2023-03-20T14:09:43.290Z,32.02
2023-03-20T14:12:12.599Z,32.49
2023-03-20T14:14:54.871Z,36.09
2023-03-20T14:17:27.554Z,32.17
2023-03-20T14:19:55.736Z,32.59
2023-03-20T14:22:40.909Z,33.03
2023-03-20T14:25:19.437Z,33.20
2023-03-20T14:28:06.364Z,32.44
2023-03-20T14:30:32.791Z,31.18
2023-03-20T14:33:21.785Z,31.08
2023-03-20T14:36:10.131Z,31.28
2023-03-20T14:39:00.885Z,31.64
2023-03-20T14:41:36.745Z,31.75
2023-03-20T14:44:09.091Z,31.06
2023-03-20T14:46:56.847Z,31.02
2023-03-20T14:49:43.629Z,31.52
2023-03-20T14:52:28.716Z,32.16
2023-03-20T14:54:55.785Z,31.85
2023-03-20T14:57:37.546Z,32.21
2023-03-20T15:00:19.746Z,31.91
2023-03-20T15:02:50.585Z,31.23
2023-03-20T15:05:29.961Z,32.55
2023-03-20T15:08:13.381Z,32.80
2023-03-20T15:10:51.558Z,33.45
2023-03-20T15:13:18.915Z,32.65
2023-03-20T15:16:03.385Z,33.31
2023-03-20T15:18:40.011Z,33.89
2023-03-20T15:21:20.266Z,34.65
2023-03-20T15:23:48.424Z,34.88
2023-03-20T15:26:16.736Z,35.18
2023-03-20T15:28:44.918Z,35.13
2023-03-20T15:31:30.326Z,36.20
2023-03-20T15:33:57.728Z,35.03
2023-03-20T15:36:28.354Z,34.64
2023-03-20T15:39:15.041Z,33.09
2023-03-20T15:41:46.372Z,33.75
2023-03-20T15:44:16.054Z,34.11
2023-03-20T15:46:59.723Z,34.37
2023-03-20T15:49:28.403Z,35.11
2023-03-20T15:51:59.425Z,35.81
2023-03-20T15:54:26.581Z,35.68
2023-03-20T15:56:56.955Z,37.28
2023-03-20T15:59:26.964Z,37.82
2023-03-20T16:01:58.024Z,38.12
2023-03-20T16:04:26.594Z,38.96
2023-03-20T16:07:00.766Z,40.53
2023-03-20T16:09:28.183Z,40.67
2023-03-20T16:12:01.682Z,40.47
2023-03-20T16:14:33.858Z,40.54
2023-03-20T16:17:03.424Z,40.41
2023-03-20T16:19:30.094Z,40.32
2023-03-20T16:22:09.297Z,41.30
2023-03-20T16:24:39.349Z,42.72
2023-03-20T16:27:10.471Z,42.28
2023-03-20T16:29:43.705Z,41.40
2023-03-20T16:32:26.930Z,41.75
2023-03-20T16:34:56.849Z,41.90
2023-03-20T16:37:29.956Z,42.65
2023-03-20T16:40:26.262Z,43.45
2023-03-20T16:42:56.425Z,44.76
2023-03-20T16:45:31.790Z,43.86
2023-03-20T16:48:10.454Z,45.12
2023-03-20T16:50:40.108Z,45.42
2023-03-20T16:53:20.284Z,44.82
2023-03-20T16:55:50.322Z,45.11
2023-03-20T16:58:25.704Z,46.40
2023-03-20T17:01:03.297Z,46.55
2023-03-20T17:03:44.478Z,47.11
2023-03-20T17:06:21.493Z,47.95
2023-03-20T17:08:53.141Z,48.65
2023-03-20T17:11:38.655Z,48.88
2023-03-20T17:14:08.475Z,48.89
2023-03-20T17:16:36.682Z,49.34
2023-03-20T17:19:11.037Z,50.34
2023-03-20T17:21:37.643Z,50.96
2023-03-20T17:24:05.195Z,54.75
2023-03-20T17:26:31.770Z,52.60
2023-03-20T17:28:58.445Z,52.59
2023-03-20T17:31:25.084Z,53.59
2023-03-20T17:33:52.531Z,53.94
2023-03-20T17:36:23.434Z,54.74
2023-03-20T17:38:49.968Z,55.21
2023-03-20T17:41:20.929Z,55.46
2023-03-20T17:43:47.653Z,56.38
2023-03-20T17:46:26.527Z,56.71
2023-03-20T17:48:58.867Z,56.23
2023-03-20T17:51:25.695Z,56.58
2023-03-20T17:53:55.449Z,57.01
2023-03-20T17:56:22.583Z,57.30
2023-03-20T17:58:49.111Z,57.74
2023-03-20T18:01:15.901Z,58.02
2023-03-20T18:03:43.065Z,58.38
2023-03-20T18:06:21.854Z,59.18
2023-03-20T18:08:48.376Z,59.20
2023-03-20T18:11:14.944Z,59.64
2023-03-20T18:13:41.777Z,59.74
2023-03-20T18:16:18.390Z,59.97
2023-03-20T18:18:45.303Z,60.10
2023-03-20T18:21:13.230Z,62.42
2023-03-20T18:23:39.857Z,61.19
2023-03-20T18:26:18.097Z,61.23
2023-03-20T18:28:44.565Z,61.46
2023-03-20T18:31:12.897Z,61.70
2023-03-20T18:33:39.456Z,62.28
2023-03-20T18:36:15.469Z,62.44
2023-03-20T18:38:42.001Z,63.31
2023-03-20T18:41:08.847Z,63.57
2023-03-20T18:43:36.731Z,63.31
2023-03-20T18:46:03.785Z,63.33
2023-03-20T18:48:31.078Z,63.51
2023-03-20T18:51:01.223Z,64.08
2023-03-20T18:53:29.644Z,64.25
2023-03-20T18:55:56.423Z,64.49
2023-03-20T18:58:25.696Z,64.87
2023-03-20T19:00:54.909Z,65.14
2023-03-20T19:03:28.514Z,64.83
2023-03-20T19:05:58.247Z,65.17
2023-03-20T19:08:25.365Z,65.11
2023-03-20T19:10:56.201Z,65.21
2023-03-20T19:13:25.385Z,65.59
2023-03-20T19:15:52.071Z,65.62
2023-03-20T19:18:21.940Z,65.48
2023-03-20T19:20:53.330Z,65.44
2023-03-20T19:23:20.683Z,65.45
2023-03-20T19:25:50.147Z,65.30
2023-03-20T19:28:37.703Z,65.34
2023-03-20T19:31:07.386Z,65.10
2023-03-20T19:33:34.207Z,65.65
2023-03-20T19:36:04.944Z,65.93
2023-03-20T19:38:33.627Z,66.79
2023-03-20T19:41:03.989Z,67.13
2023-03-20T19:43:30.756Z,67.47
2023-03-20T19:45:59.317Z,67.79
2023-03-20T19:51:19.893Z,68.55
2023-03-20T19:53:47.113Z,68.97
2023-03-20T19:56:15.213Z,69.25
2023-03-20T19:58:42.546Z,69.71
2023-03-20T20:01:21.448Z,70.09
2023-03-20T20:03:49.843Z,70.49
2023-03-20T20:06:16.661Z,70.90
2023-03-20T20:08:48.416Z,70.76
2023-03-20T20:11:17.892Z,70.52
2023-03-20T20:16:32.508Z,69.72
2023-03-20T20:18:59.078Z,70.62
2023-03-20T20:22:13.314Z,71.47
2023-03-20T20:24:12.680Z,71.67
2023-03-20T20:26:49.454Z,72.21
2023-03-20T20:29:20.383Z,72.42
2023-03-20T20:31:47.005Z,72.32
2023-03-20T20:39:46.965Z,72.74
2023-03-20T20:42:14.325Z,72.79
2023-03-20T20:44:41.042Z,74.00
2023-03-20T20:47:10.623Z,73.92
2023-03-20T20:49:37.094Z,73.97
2023-03-20T20:52:03.815Z,73.74
2023-03-20T20:54:30.353Z,73.05
2023-03-20T20:56:56.898Z,73.88
2023-03-20T20:59:23.342Z,74.61
2023-03-20T21:01:50.644Z,74.97
2023-03-20T21:04:17.778Z,74.60
2023-03-20T21:07:08.529Z,74.18
2023-03-20T21:09:31.549Z,74.64
2023-03-20T21:11:58.193Z,74.39
2023-03-20T21:14:25.152Z,74.68
2023-03-20T21:16:51.728Z,75.06
2023-03-20T21:19:19.068Z,76.41
2023-03-20T21:21:45.611Z,76.97
2023-03-20T21:24:31.037Z,78.19
2023-03-20T21:26:59.261Z,78.38
2023-03-20T21:29:26.268Z,78.65
2023-03-20T21:31:52.809Z,78.34
2023-03-20T21:34:19.337Z,77.74
2023-03-20T21:36:49.020Z,77.57
2023-03-20T21:39:17.752Z,77.90
2023-03-20T21:41:44.868Z,77.70
2023-03-20T21:44:17.611Z,77.90
2023-03-20T21:50:28.783Z,78.38
2023-03-20T21:56:09.371Z,78.46
2023-03-20T21:58:36.676Z,78.95
2023-03-20T22:04:01.701Z,78.12
2023-03-20T22:20:58.824Z,79.31
2023-03-20T22:23:45.620Z,78.56
2023-03-20T22:29:32.347Z,78.53
2023-03-20T22:34:54.360Z,78.65
2023-03-20T22:43:14.958Z,79.75
2023-03-20T22:45:38.430Z,80.47
2023-03-20T22:48:11.562Z,80.82
2023-03-20T22:50:40.218Z,79.43
2023-03-20T22:53:06.983Z,79.05
2023-03-20T22:55:33.499Z,79.38
2023-03-20T22:58:07.294Z,79.81
2023-03-20T23:00:36.270Z,79.46
2023-03-20T23:03:19.640Z,79.85
2023-03-20T23:05:50.551Z,79.48
2023-03-20T23:08:17.303Z,79.29
2023-03-20T23:10:48.658Z,79.91
2023-03-20T23:13:20.258Z,80.12
2023-03-20T23:15:47.206Z,80.46
2023-03-20T23:18:18.097Z,80.09
2023-03-20T23:20:48.969Z,80.05
2023-03-20T23:23:17.698Z,80.53
2023-03-20T23:25:46.698Z,80.64
2023-03-20T23:28:13.216Z,80.11
2023-03-20T23:30:48.120Z,79.84
2023-03-20T23:33:20.660Z,80.17
2023-03-20T23:36:01.275Z,79.92
2023-03-20T23:38:36.146Z,79.96
2023-03-20T23:41:02.771Z,80.21
2023-03-20T23:43:29.219Z,79.71
2023-03-20T23:45:55.786Z,78.99
2023-03-20T23:48:22.336Z,78.78
2023-03-20T23:50:53.334Z,78.99
2023-03-20T23:53:21.325Z,79.78
2023-03-20T23:55:53.704Z,80.18
2023-03-20T23:58:21.724Z,82.54
